Flight Track Log - Related Links

Times and Time Zones

All times are in EDT time to prevent confusion due to time zone crossing. See the SWA962 flight status page for this flight to view local times or setup timezone preferences in your user account.

Time Position Orientation Groundspeed Altitude Reporting Facility
EDT Latitude Longitude Course Direction KTS MPH feet Rate Location/Type
Tue 12:42:27 PM 33.4333 -111.9833 90° East 167 192 2,300  Level Phoenix TRACON
Tue 12:44:04 PM 33.4333 -111.8667 90° East 221 254 4,900 1,748 Climbing Phoenix TRACON
Tue 12:44:58 PM 33.4167 -111.8000 107° East 276 318 6,700 2,700 Climbing Phoenix TRACON
Tue 12:46:04 PM 33.3833 -111.7000 112° Southeast 285 328 10,300 2,571 Climbing Phoenix TRACON
Tue 12:48:21 PM 33.3189 -111.4614 108° East 366 421 15,400 2,382 Climbing Albuquerque Center
Tue 12:49:23 PM 33.2869 -111.3394 107° East 384 442 18,200 2,710 Climbing Albuquerque Center
Tue 12:50:25 PM 33.2472 -111.1883 107° East 402 463 21,000 2,371 Climbing Albuquerque Center
Tue 12:51:27 PM 33.2114 -111.0550 108° East 423 487 23,100 1,935 Climbing Albuquerque Center
Tue 12:52:29 PM 33.1736 -110.9150 108° East 439 505 25,000 1,839 Climbing Albuquerque Center
Tue 12:53:31 PM 33.1350 -110.7683 107° East 458 527 26,900 1,887 Climbing Albuquerque Center
Tue 12:54:33 PM 33.0889 -110.6039 108° East 474 545 28,900 1,742 Climbing Albuquerque Center
Tue 12:55:35 PM 33.0469 -110.4506 108° East 488 562 30,500 1,500 Climbing Albuquerque Center
Tue 12:56:37 PM 33.0044 -110.2950 108° East 497 572 32,000 1,742 Climbing Albuquerque Center
Tue 12:57:39 PM 32.9603 -110.1386 109° East 502 578 34,100 1,935 Climbing Albuquerque Center
Tue 12:58:41 PM 32.9069 -109.9547 109° East 498 573 36,000 1,561 Climbing Albuquerque Center
Tue 12:59:42 PM 32.8633 -109.8036 109° East 492 566 37,300 1,171 Climbing Albuquerque Center
Tue 01:00:44 PM 32.8217 -109.6517 108° East 490 564 38,400 823 Climbing Albuquerque Center
Tue 01:01:46 PM 32.7794 -109.5017 108° East 487 560 39,000 290 Climbing Albuquerque Center
Tue 01:02:48 PM 32.7369 -109.3531 109° East 485 558 39,000  Level Albuquerque Center
Tue 01:03:50 PM 32.6861 -109.1786 109° East 479 551 39,000  Level Albuquerque Center
Tue 01:04:52 PM 32.6442 -109.0306 109° East 480 552 39,000  Level Albuquerque Center
Tue 01:05:54 PM 32.6019 -108.8847 109° East 478 550 39,000  Level Albuquerque Center
Tue 01:06:56 PM 32.5603 -108.7397 109° East 475 547 39,000  Level Albuquerque Center
Tue 01:07:58 PM 32.5100 -108.5653 109° East 473 544 39,000  Level Albuquerque Center
Tue 01:08:59 PM 32.4667 -108.4200 109° East 474 545 39,000  Level Albuquerque Center
Tue 01:10:01 PM 32.4197 -108.2611 109° East 476 548 39,000  Level Albuquerque Center
Tue 01:11:03 PM 32.3756 -108.1133 109° East 478 550 39,000  Level Albuquerque Center
Tue 01:12:05 PM 32.3322 -107.9650 109° East 480 552 39,000  Level Albuquerque Center
Tue 01:13:07 PM 32.2864 -107.8158 110° East 484 557 39,000  Level Albuquerque Center
Tue 01:14:09 PM 32.2428 -107.6672 109° East 484 557 39,000  Level Albuquerque Center
Tue 01:15:10 PM 32.1983 -107.5183 109° East 484 557 39,000  Level Albuquerque Center
Tue 01:16:12 PM 32.1447 -107.3408 110° East 485 558 39,000  Level Albuquerque Center
Tue 01:17:14 PM 32.0997 -107.1931 110° East 485 558 39,000  Level Albuquerque Center
Tue 01:18:16 PM 32.0553 -107.0461 110° East 483 556 39,000  Level Albuquerque Center
Tue 01:19:17 PM 32.0100 -106.8994 110° East 482 555 39,000  Level Albuquerque Center
Tue 01:20:19 PM 31.9556 -106.7256 110° East 477 549 39,000  Level Albuquerque Center
Tue 01:21:21 PM 31.9103 -106.5800 110° East 476 548 39,000  Level Albuquerque Center
Tue 01:22:23 PM 31.8694 -106.4478 110° East 482 555 39,000  Level Albuquerque Center
Tue 01:23:24 PM 31.8139 -106.2731 110° East 478 550 39,000  Level Albuquerque Center
Tue 01:24:26 PM 31.7764 -106.1231 106° East 475 547 39,000  Level Albuquerque Center
Tue 01:25:28 PM 31.7383 -105.9750 107° East 474 545 39,000  Level Albuquerque Center
Tue 01:26:30 PM 31.7014 -105.8261 106° East 474 545 39,000  Level Albuquerque Center
Tue 01:27:31 PM 31.6644 -105.6767 106° East 476 548 39,000  Level Albuquerque Center
Tue 01:28:33 PM 31.6275 -105.5261 106° East 479 551 39,000  Level Albuquerque Center
Tue 01:29:35 PM 31.5892 -105.3769 107° East 477 549 39,000  Level Albuquerque Center
Tue 01:30:36 PM 31.5514 -105.2272 106° East 477 549 39,000  Level Albuquerque Center
Tue 01:31:38 PM 31.5050 -105.0469 107° East 479 551 39,000  Level Albuquerque Center
Tue 01:32:40 PM 31.4661 -104.8967 107° East 480 552 39,000  Level Albuquerque Center
Tue 01:33:41 PM 31.4272 -104.7453 107° East 482 555 39,000  Level Albuquerque Center
Tue 01:34:43 PM 31.3900 -104.5975 106° East 476 548 39,000  Level Albuquerque Center
Tue 01:35:45 PM 31.3494 -104.4472 108° East 480 552 39,000  Level Albuquerque Center
Tue 01:36:47 PM 31.3114 -104.2978 107° East 479 551 39,000  Level Albuquerque Center
Tue 01:37:48 PM 31.2725 -104.1517 107° East 474 545 39,000  Level Albuquerque Center
Tue 01:38:50 PM 31.2325 -104.0039 108° East 476 548 39,000  Level Albuquerque Center
Tue 01:39:52 PM 31.1925 -103.8553 107° East 480 552 39,000  Level Albuquerque Center
Tue 01:40:53 PM 31.1431 -103.6742 108° East 477 549 39,000  Level Albuquerque Center
Tue 01:41:55 PM 31.1028 -103.5283 108° East 475 547 39,000  Level Albuquerque Center
Tue 01:42:57 PM 31.0617 -103.3825 108° East 475 547 39,000  Level Albuquerque Center
Tue 01:43:59 PM 31.0214 -103.2361 108° East 476 548 39,000  Level Albuquerque Center
Tue 01:45:00 PM 30.9828 -103.0931 107° East 470 541 39,000  Level Albuquerque Center
Tue 01:46:02 PM 30.9436 -102.9494 108° East 467 537 39,000  Level Albuquerque Center
Tue 01:47:04 PM 30.8986 -102.7725 106° East 475 547 39,000  Level Albuquerque Center
Tue 01:48:06 PM 30.8614 -102.6272 107° East 474 545 39,000  Level Albuquerque Center
Tue 01:49:08 PM 30.8233 -102.4850 107° East 469 540 39,000  Level Albuquerque Center
Tue 01:50:00 PM 30.7931 -102.3711 107° East 469 540 39,000  Level Houston Center
Tue 01:51:02 PM 30.7569 -102.2297 107° East 465 535 39,000  Level Houston Center
Tue 01:52:04 PM 30.7125 -102.0603 107° East 463 533 39,000  Level Houston Center
Tue 01:53:06 PM 30.6747 -101.9189 107° East 462 532 39,000  Level Houston Center
Tue 01:54:08 PM 30.6367 -101.7761 107° East 464 534 39,000  Level Houston Center
Tue 01:55:10 PM 30.5992 -101.6339 107° East 464 534 39,000  Level Houston Center
Tue 01:56:12 PM 30.5600 -101.4939 108° East 462 532 39,000  Level Houston Center
Tue 01:57:15 PM 30.5133 -101.3219 107° East 464 534 39,000  Level Houston Center
Tue 01:58:16 PM 30.4733 -101.1789 108° East 468 539 39,000  Level Houston Center
Tue 01:59:18 PM 30.4358 -101.0336 107° East 470 541 39,000 -484 Level Houston Center
Tue 02:00:20 PM 30.3964 -100.8908 108° East 467 537 38,000 -968 Descending Houston Center
Tue 02:01:22 PM 30.3572 -100.7481 108° East 467 537 37,000 -927 Descending Houston Center
Tue 02:02:23 PM 30.3189 -100.6050 107° East 467 537 36,100 -1,415 Descending Houston Center
Tue 02:03:25 PM 30.2678 -100.4336 109° East 469 540 34,100 -2,371 Descending Houston Center
Tue 02:04:27 PM 30.2278 -100.2892 108° East 472 543 31,200 -2,516 Descending Houston Center
Tue 02:05:29 PM 30.1875 -100.1458 108° East 472 543 28,900 -2,129 Descending Houston Center
Tue 02:06:31 PM 30.1525 -100.0219 108° East 460 529 26,800 -2,323 Descending Houston Center
Tue 02:07:33 PM 30.1078 -99.8583 107° East 445 512 24,100 -2,323 Descending Houston Center
Tue 02:08:35 PM 30.0717 -99.7331 108° East 420 483 22,000 -2,032 Descending Houston Center
Tue 02:09:37 PM 30.0358 -99.6061 108° East 417 480 19,900 -1,984 Descending Houston Center
Tue 02:10:39 PM 30.0000 -99.4861 109° East 400 460 17,900 -1,984 Descending Houston Center
Tue 02:11:41 PM 29.9639 -99.3567 108° East 382 440 15,800 -2,129 Descending Houston Center
Tue 02:12:43 PM 29.9278 -99.2347 109° East 373 429 13,500 -2,143 Descending Houston Center
Tue 02:13:19 PM 29.9047 -99.1694 112° Southeast 362 417 12,300 -1,806 Descending Houston Center
Tue 02:14:26 PM 29.8636 -99.0586 113° Southeast 352 405 10,400 -1,240 Descending Houston Center
Tue 02:15:20 PM 29.8308 -98.9733 114° Southeast 313 360 9,800 -1,228 Descending Houston Center
Tue 02:16:33 PM 29.7919 -98.8647 112° Southeast 293 337 7,800 -1,475 Descending Houston Center
Tue 02:17:22 PM 29.7672 -98.8003 114° Southeast 290 334 6,800 -1,050 Descending Houston Center
Tue 02:17:53 PM 29.7525 -98.7567 111° Southeast 272 313 6,400 -968 Descending Houston Center
Tue 02:18:55 PM 29.7100 -98.7017 132° Southeast 229 264 5,300 -1,113 Descending Houston Center
Tue 02:19:57 PM 29.6650 -98.6433 132° Southeast 226 260 4,100 -968 Descending Houston Center
Tue 02:20:59 PM 29.6289 -98.5961 131° Southeast 205 236 3,300 -864 Descending Houston Center
Tue 02:22:02 PM 29.5942 -98.5508 131° Southeast 180 207 2,300 -816 Descending Houston Center
Tue 02:23:04 PM 29.5678 -98.5164 131° Southeast 150 173 1,600 -726 Descending Houston Center
Tue 02:24:06 PM 29.5408 -98.4811 131° Southeast 141 162 800 -774 Descending Houston Center
Tue 02:26:00 PM 29.5333 -98.4667 120° Southeast  Level FlightAware Approximate
Tue 02:33:00 PM 29.5340 -98.4691 120° Southeast  Level Estimated

Login

Don't have an account? Register now (free) for customized features, flight alerts, and more!